sensor_id;sensor_type;location;lat;lon;timestamp;temperature;humidity
5027;DHT22;2532;52.480;13.354;2022-12-08T00:00:45;3.40;96.00
5027;DHT22;2532;52.480;13.354;2022-12-08T00:03:12;3.50;96.00
5027;DHT22;2532;52.480;13.354;2022-12-08T00:05:44;3.50;96.00
5027;DHT22;2532;52.480;13.354;2022-12-08T00:08:29;3.50;96.00
5027;DHT22;2532;52.480;13.354;2022-12-08T00:11:14;3.50;95.90
5027;DHT22;2532;52.480;13.354;2022-12-08T00:13:41;3.50;95.90
5027;DHT22;2532;52.480;13.354;2022-12-08T00:16:08;3.50;95.80
5027;DHT22;2532;52.480;13.354;2022-12-08T00:18:35;3.50;95.80
5027;DHT22;2532;52.480;13.354;2022-12-08T00:21:04;3.50;95.80
5027;DHT22;2532;52.480;13.354;2022-12-08T00:23:31;3.60;95.90
5027;DHT22;2532;52.480;13.354;2022-12-08T00:26:01;3.50;95.80
5027;DHT22;2532;52.480;13.354;2022-12-08T00:28:28;3.60;95.90
5027;DHT22;2532;52.480;13.354;2022-12-08T00:30:57;3.60;95.90
5027;DHT22;2532;52.480;13.354;2022-12-08T00:33:24;3.60;95.90
5027;DHT22;2532;52.480;13.354;2022-12-08T00:35:50;3.60;95.80
5027;DHT22;2532;52.480;13.354;2022-12-08T00:38:19;3.60;95.80
5027;DHT22;2532;52.480;13.354;2022-12-08T00:40:46;3.60;95.70
5027;DHT22;2532;52.480;13.354;2022-12-08T00:43:13;3.60;95.70
5027;DHT22;2532;52.480;13.354;2022-12-08T00:45:41;3.60;95.70
5027;DHT22;2532;52.480;13.354;2022-12-08T00:48:08;3.60;95.70
5027;DHT22;2532;52.480;13.354;2022-12-08T00:50:35;3.60;95.70
5027;DHT22;2532;52.480;13.354;2022-12-08T00:53:02;3.60;95.80
5027;DHT22;2532;52.480;13.354;2022-12-08T00:55:30;3.50;95.80
5027;DHT22;2532;52.480;13.354;2022-12-08T00:57:59;3.50;95.80
5027;DHT22;2532;52.480;13.354;2022-12-08T01:00:26;3.50;95.80
5027;DHT22;2532;52.480;13.354;2022-12-08T01:02:53;3.50;95.90
5027;DHT22;2532;52.480;13.354;2022-12-08T01:05:20;3.50;96.00
5027;DHT22;2532;52.480;13.354;2022-12-08T01:07:47;3.60;96.10
5027;DHT22;2532;52.480;13.354;2022-12-08T01:10:14;3.60;96.10
5027;DHT22;2532;52.480;13.354;2022-12-08T01:12:43;3.60;96.00
5027;DHT22;2532;52.480;13.354;2022-12-08T01:15:10;3.60;96.00
5027;DHT22;2532;52.480;13.354;2022-12-08T01:17:37;3.60;96.00
5027;DHT22;2532;52.480;13.354;2022-12-08T01:20:05;3.60;96.00
5027;DHT22;2532;52.480;13.354;2022-12-08T01:22:32;3.60;96.00
5027;DHT22;2532;52.480;13.354;2022-12-08T01:25:00;3.60;95.90
5027;DHT22;2532;52.480;13.354;2022-12-08T01:27:27;3.60;95.90
5027;DHT22;2532;52.480;13.354;2022-12-08T01:29:55;3.60;95.90
5027;DHT22;2532;52.480;13.354;2022-12-08T01:32:22;3.60;95.90
5027;DHT22;2532;52.480;13.354;2022-12-08T01:34:49;3.60;95.90
5027;DHT22;2532;52.480;13.354;2022-12-08T01:37:16;3.60;96.00
5027;DHT22;2532;52.480;13.354;2022-12-08T01:39:43;3.70;95.90
5027;DHT22;2532;52.480;13.354;2022-12-08T01:42:20;3.70;95.90
5027;DHT22;2532;52.480;13.354;2022-12-08T01:44:59;3.70;96.00
5027;DHT22;2532;52.480;13.354;2022-12-08T01:47:33;3.60;96.00
5027;DHT22;2532;52.480;13.354;2022-12-08T01:50:03;3.60;96.00
5027;DHT22;2532;52.480;13.354;2022-12-08T01:52:35;3.60;96.10
5027;DHT22;2532;52.480;13.354;2022-12-08T01:55:05;3.60;96.10
5027;DHT22;2532;52.480;13.354;2022-12-08T01:57:36;3.60;96.20
5027;DHT22;2532;52.480;13.354;2022-12-08T02:00:10;3.60;96.20
5027;DHT22;2532;52.480;13.354;2022-12-08T02:02:45;3.60;96.20
5027;DHT22;2532;52.480;13.354;2022-12-08T02:05:15;3.60;96.20
5027;DHT22;2532;52.480;13.354;2022-12-08T02:07:46;3.60;96.20
5027;DHT22;2532;52.480;13.354;2022-12-08T02:10:17;3.60;96.20
5027;DHT22;2532;52.480;13.354;2022-12-08T02:12:45;3.60;96.30
5027;DHT22;2532;52.480;13.354;2022-12-08T02:15:14;3.60;96.30
5027;DHT22;2532;52.480;13.354;2022-12-08T02:17:52;3.60;96.30
5027;DHT22;2532;52.480;13.354;2022-12-08T02:20:38;3.60;96.30
5027;DHT22;2532;52.480;13.354;2022-12-08T02:23:17;3.50;96.30
5027;DHT22;2532;52.480;13.354;2022-12-08T02:29:20;3.50;96.40
5027;DHT22;2532;52.480;13.354;2022-12-08T02:32:14;3.50;96.40
5027;DHT22;2532;52.480;13.354;2022-12-08T02:34:51;3.50;96.40
5027;DHT22;2532;52.480;13.354;2022-12-08T02:37:27;3.50;96.40
5027;DHT22;2532;52.480;13.354;2022-12-08T02:40:00;3.50;96.50
5027;DHT22;2532;52.480;13.354;2022-12-08T02:42:31;3.50;96.50
5027;DHT22;2532;52.480;13.354;2022-12-08T02:45:05;3.50;96.60
5027;DHT22;2532;52.480;13.354;2022-12-08T02:47:34;3.50;96.60
5027;DHT22;2532;52.480;13.354;2022-12-08T02:50:04;3.50;96.60
5027;DHT22;2532;52.480;13.354;2022-12-08T02:52:46;3.50;96.60
5027;DHT22;2532;52.480;13.354;2022-12-08T02:55:25;3.50;96.60
5027;DHT22;2532;52.480;13.354;2022-12-08T03:01:06;3.50;96.70
5027;DHT22;2532;52.480;13.354;2022-12-08T03:03:39;3.50;96.80
5027;DHT22;2532;52.480;13.354;2022-12-08T03:06:17;3.50;96.80
5027;DHT22;2532;52.480;13.354;2022-12-08T03:08:50;3.50;96.80
5027;DHT22;2532;52.480;13.354;2022-12-08T03:11:23;3.50;96.80
5027;DHT22;2532;52.480;13.354;2022-12-08T03:13:55;3.50;96.90
5027;DHT22;2532;52.480;13.354;2022-12-08T03:16:25;3.50;96.90
5027;DHT22;2532;52.480;13.354;2022-12-08T03:18:59;3.50;96.90
5027;DHT22;2532;52.480;13.354;2022-12-08T03:21:28;3.50;96.90
5027;DHT22;2532;52.480;13.354;2022-12-08T03:23:57;3.50;96.90
5027;DHT22;2532;52.480;13.354;2022-12-08T03:26:29;3.50;96.90
5027;DHT22;2532;52.480;13.354;2022-12-08T03:28:57;3.50;96.90
5027;DHT22;2532;52.480;13.354;2022-12-08T03:31:27;3.50;97.00
5027;DHT22;2532;52.480;13.354;2022-12-08T03:33:58;3.50;96.90
5027;DHT22;2532;52.480;13.354;2022-12-08T03:36:27;3.50;96.90
5027;DHT22;2532;52.480;13.354;2022-12-08T03:38:54;3.50;97.00
5027;DHT22;2532;52.480;13.354;2022-12-08T03:41:22;3.50;97.00
5027;DHT22;2532;52.480;13.354;2022-12-08T03:43:50;3.50;97.00
5027;DHT22;2532;52.480;13.354;2022-12-08T03:46:19;3.40;96.90
5027;DHT22;2532;52.480;13.354;2022-12-08T03:48:47;3.50;97.00
5027;DHT22;2532;52.480;13.354;2022-12-08T03:51:14;3.50;97.00
5027;DHT22;2532;52.480;13.354;2022-12-08T03:53:43;3.40;97.00
5027;DHT22;2532;52.480;13.354;2022-12-08T03:56:20;3.50;97.10
5027;DHT22;2532;52.480;13.354;2022-12-08T03:58:47;3.50;97.10
5027;DHT22;2532;52.480;13.354;2022-12-08T04:01:14;3.50;97.10
5027;DHT22;2532;52.480;13.354;2022-12-08T04:03:42;3.40;97.00
5027;DHT22;2532;52.480;13.354;2022-12-08T04:06:09;3.40;97.10
5027;DHT22;2532;52.480;13.354;2022-12-08T04:08:36;3.40;97.10
5027;DHT22;2532;52.480;13.354;2022-12-08T04:11:04;3.50;97.20
5027;DHT22;2532;52.480;13.354;2022-12-08T04:13:32;3.50;97.30
5027;DHT22;2532;52.480;13.354;2022-12-08T04:15:59;3.50;97.30
5027;DHT22;2532;52.480;13.354;2022-12-08T04:18:26;3.50;97.30
5027;DHT22;2532;52.480;13.354;2022-12-08T04:20:53;3.50;97.30
5027;DHT22;2532;52.480;13.354;2022-12-08T04:23:20;3.50;97.30
5027;DHT22;2532;52.480;13.354;2022-12-08T04:25:48;3.50;97.30
5027;DHT22;2532;52.480;13.354;2022-12-08T04:28:17;3.60;97.30
5027;DHT22;2532;52.480;13.354;2022-12-08T04:30:44;3.60;97.30
5027;DHT22;2532;52.480;13.354;2022-12-08T04:33:13;3.60;97.20
5027;DHT22;2532;52.480;13.354;2022-12-08T04:35:40;3.60;97.20
5027;DHT22;2532;52.480;13.354;2022-12-08T04:38:07;3.60;97.20
5027;DHT22;2532;52.480;13.354;2022-12-08T04:40:37;3.60;97.20
5027;DHT22;2532;52.480;13.354;2022-12-08T04:43:04;3.60;97.20
5027;DHT22;2532;52.480;13.354;2022-12-08T04:45:33;3.60;97.20
5027;DHT22;2532;52.480;13.354;2022-12-08T04:48:00;3.60;97.20
5027;DHT22;2532;52.480;13.354;2022-12-08T04:50:32;3.80;97.40
5027;DHT22;2532;52.480;13.354;2022-12-08T04:52:59;3.70;97.30
5027;DHT22;2532;52.480;13.354;2022-12-08T04:55:26;3.70;97.30
5027;DHT22;2532;52.480;13.354;2022-12-08T04:57:53;3.60;97.20
5027;DHT22;2532;52.480;13.354;2022-12-08T05:00:20;3.70;97.20
5027;DHT22;2532;52.480;13.354;2022-12-08T05:02:51;3.60;97.20
5027;DHT22;2532;52.480;13.354;2022-12-08T05:05:18;3.70;97.30
5027;DHT22;2532;52.480;13.354;2022-12-08T05:07:45;3.60;97.30
5027;DHT22;2532;52.480;13.354;2022-12-08T05:10:12;3.60;97.30
5027;DHT22;2532;52.480;13.354;2022-12-08T05:12:39;3.70;97.40
5027;DHT22;2532;52.480;13.354;2022-12-08T05:15:07;3.70;97.40
5027;DHT22;2532;52.480;13.354;2022-12-08T05:17:34;3.70;97.40
5027;DHT22;2532;52.480;13.354;2022-12-08T05:20:02;3.70;97.40
5027;DHT22;2532;52.480;13.354;2022-12-08T05:22:29;3.80;97.50
5027;DHT22;2532;52.480;13.354;2022-12-08T05:24:56;3.80;97.50
5027;DHT22;2532;52.480;13.354;2022-12-08T05:27:23;3.90;97.50
5027;DHT22;2532;52.480;13.354;2022-12-08T05:29:50;3.90;97.50
5027;DHT22;2532;52.480;13.354;2022-12-08T05:32:17;3.90;97.50
5027;DHT22;2532;52.480;13.354;2022-12-08T05:34:44;4.00;97.50
5027;DHT22;2532;52.480;13.354;2022-12-08T05:37:13;4.00;97.40
5027;DHT22;2532;52.480;13.354;2022-12-08T05:39:40;4.00;97.40
5027;DHT22;2532;52.480;13.354;2022-12-08T05:42:07;4.00;97.40
5027;DHT22;2532;52.480;13.354;2022-12-08T05:44:34;4.00;97.40
5027;DHT22;2532;52.480;13.354;2022-12-08T05:47:01;4.10;97.40
5027;DHT22;2532;52.480;13.354;2022-12-08T05:49:28;4.10;97.40
5027;DHT22;2532;52.480;13.354;2022-12-08T05:51:55;4.10;97.40
5027;DHT22;2532;52.480;13.354;2022-12-08T05:54:23;4.10;97.50
5027;DHT22;2532;52.480;13.354;2022-12-08T05:56:50;4.10;97.50
5027;DHT22;2532;52.480;13.354;2022-12-08T05:59:17;4.10;97.40
5027;DHT22;2532;52.480;13.354;2022-12-08T06:01:44;4.20;97.50
5027;DHT22;2532;52.480;13.354;2022-12-08T06:04:11;4.20;97.40
5027;DHT22;2532;52.480;13.354;2022-12-08T06:06:39;4.20;97.40
5027;DHT22;2532;52.480;13.354;2022-12-08T06:09:06;4.20;97.40
5027;DHT22;2532;52.480;13.354;2022-12-08T06:11:35;4.30;97.50
5027;DHT22;2532;52.480;13.354;2022-12-08T06:14:02;4.30;97.40
5027;DHT22;2532;52.480;13.354;2022-12-08T06:16:30;4.30;97.40
5027;DHT22;2532;52.480;13.354;2022-12-08T06:18:57;4.30;97.40
5027;DHT22;2532;52.480;13.354;2022-12-08T06:21:24;4.30;97.30
5027;DHT22;2532;52.480;13.354;2022-12-08T06:23:52;4.30;97.30
5027;DHT22;2532;52.480;13.354;2022-12-08T06:26:20;4.30;97.40
5027;DHT22;2532;52.480;13.354;2022-12-08T06:28:49;4.30;97.50
5027;DHT22;2532;52.480;13.354;2022-12-08T06:31:18;4.30;97.90
5027;DHT22;2532;52.480;13.354;2022-12-08T06:33:45;4.50;98.10
5027;DHT22;2532;52.480;13.354;2022-12-08T06:36:16;4.50;98.10
5027;DHT22;2532;52.480;13.354;2022-12-08T06:38:43;4.50;97.90
5027;DHT22;2532;52.480;13.354;2022-12-08T06:41:11;4.60;97.80
5027;DHT22;2532;52.480;13.354;2022-12-08T06:43:38;4.60;97.70
5027;DHT22;2532;52.480;13.354;2022-12-08T06:46:09;4.60;97.50
5027;DHT22;2532;52.480;13.354;2022-12-08T06:48:37;4.50;97.30
5027;DHT22;2532;52.480;13.354;2022-12-08T06:51:07;4.60;97.30
5027;DHT22;2532;52.480;13.354;2022-12-08T06:53:35;4.50;97.20
5027;DHT22;2532;52.480;13.354;2022-12-08T06:56:02;4.50;97.20
5027;DHT22;2532;52.480;13.354;2022-12-08T06:58:30;4.50;97.10
5027;DHT22;2532;52.480;13.354;2022-12-08T07:01:09;4.40;97.10
5027;DHT22;2532;52.480;13.354;2022-12-08T07:03:37;4.50;97.20
5027;DHT22;2532;52.480;13.354;2022-12-08T07:06:05;4.50;97.20
5027;DHT22;2532;52.480;13.354;2022-12-08T07:08:32;4.50;97.20
5027;DHT22;2532;52.480;13.354;2022-12-08T07:11:06;4.50;97.20
5027;DHT22;2532;52.480;13.354;2022-12-08T07:13:34;4.50;97.20
5027;DHT22;2532;52.480;13.354;2022-12-08T07:16:04;4.50;97.30
5027;DHT22;2532;52.480;13.354;2022-12-08T07:18:32;4.50;97.30
5027;DHT22;2532;52.480;13.354;2022-12-08T07:21:02;4.50;97.30
5027;DHT22;2532;52.480;13.354;2022-12-08T07:23:29;4.50;97.30
5027;DHT22;2532;52.480;13.354;2022-12-08T07:25:59;4.50;97.30
5027;DHT22;2532;52.480;13.354;2022-12-08T07:28:28;4.50;97.30
5027;DHT22;2532;52.480;13.354;2022-12-08T07:30:55;4.60;97.30
5027;DHT22;2532;52.480;13.354;2022-12-08T07:33:22;4.60;97.30
5027;DHT22;2532;52.480;13.354;2022-12-08T07:35:54;4.60;97.30
5027;DHT22;2532;52.480;13.354;2022-12-08T07:38:21;4.60;97.30
5027;DHT22;2532;52.480;13.354;2022-12-08T07:40:49;4.60;97.30
5027;DHT22;2532;52.480;13.354;2022-12-08T07:43:16;4.60;97.30
5027;DHT22;2532;52.480;13.354;2022-12-08T07:45:43;4.60;97.30
5027;DHT22;2532;52.480;13.354;2022-12-08T07:48:10;4.60;97.30
5027;DHT22;2532;52.480;13.354;2022-12-08T07:50:38;4.60;97.40
5027;DHT22;2532;52.480;13.354;2022-12-08T07:53:06;4.60;97.40
5027;DHT22;2532;52.480;13.354;2022-12-08T07:55:33;4.60;97.30
5027;DHT22;2532;52.480;13.354;2022-12-08T07:58:04;4.60;97.30
5027;DHT22;2532;52.480;13.354;2022-12-08T08:00:31;4.70;97.40
5027;DHT22;2532;52.480;13.354;2022-12-08T08:02:58;4.70;97.30
5027;DHT22;2532;52.480;13.354;2022-12-08T08:05:25;4.70;97.30
5027;DHT22;2532;52.480;13.354;2022-12-08T08:07:52;4.70;97.20
5027;DHT22;2532;52.480;13.354;2022-12-08T08:10:20;4.80;97.10
5027;DHT22;2532;52.480;13.354;2022-12-08T08:12:49;4.80;97.10
5027;DHT22;2532;52.480;13.354;2022-12-08T08:15:16;4.80;97.10
5027;DHT22;2532;52.480;13.354;2022-12-08T08:17:48;4.80;97.10
5027;DHT22;2532;52.480;13.354;2022-12-08T08:20:15;4.80;97.10
5027;DHT22;2532;52.480;13.354;2022-12-08T08:22:42;4.80;97.10
5027;DHT22;2532;52.480;13.354;2022-12-08T08:25:10;4.80;97.10
5027;DHT22;2532;52.480;13.354;2022-12-08T08:27:39;4.80;97.10
5027;DHT22;2532;52.480;13.354;2022-12-08T08:30:08;4.80;97.10
5027;DHT22;2532;52.480;13.354;2022-12-08T08:32:35;4.80;97.10
5027;DHT22;2532;52.480;13.354;2022-12-08T08:35:03;4.90;97.20
5027;DHT22;2532;52.480;13.354;2022-12-08T08:37:30;4.90;97.10
5027;DHT22;2532;52.480;13.354;2022-12-08T08:39:57;4.90;97.10
5027;DHT22;2532;52.480;13.354;2022-12-08T08:42:24;4.90;97.20
5027;DHT22;2532;52.480;13.354;2022-12-08T08:44:53;4.90;97.20
5027;DHT22;2532;52.480;13.354;2022-12-08T08:47:19;5.00;97.50
5027;DHT22;2532;52.480;13.354;2022-12-08T08:49:46;5.00;97.20
5027;DHT22;2532;52.480;13.354;2022-12-08T08:52:13;5.00;97.50
5027;DHT22;2532;52.480;13.354;2022-12-08T08:54:40;5.00;97.20
5027;DHT22;2532;52.480;13.354;2022-12-08T08:57:08;5.10;97.10
5027;DHT22;2532;52.480;13.354;2022-12-08T08:59:34;5.10;97.30
5027;DHT22;2532;52.480;13.354;2022-12-08T09:02:03;5.10;97.00
5027;DHT22;2532;52.480;13.354;2022-12-08T09:04:30;5.10;97.00
5027;DHT22;2532;52.480;13.354;2022-12-08T09:06:57;5.10;97.00
5027;DHT22;2532;52.480;13.354;2022-12-08T09:09:27;5.20;96.90
5027;DHT22;2532;52.480;13.354;2022-12-08T09:11:56;5.20;96.80
5027;DHT22;2532;52.480;13.354;2022-12-08T09:14:23;5.20;96.80
5027;DHT22;2532;52.480;13.354;2022-12-08T09:16:50;5.20;96.80
5027;DHT22;2532;52.480;13.354;2022-12-08T09:19:18;5.20;96.70
5027;DHT22;2532;52.480;13.354;2022-12-08T09:21:45;5.20;96.70
5027;DHT22;2532;52.480;13.354;2022-12-08T09:24:12;5.30;96.80
5027;DHT22;2532;52.480;13.354;2022-12-08T09:26:41;5.30;96.90
5027;DHT22;2532;52.480;13.354;2022-12-08T09:29:09;5.30;96.90
5027;DHT22;2532;52.480;13.354;2022-12-08T09:31:38;5.30;96.80
5027;DHT22;2532;52.480;13.354;2022-12-08T09:34:05;5.30;96.80
5027;DHT22;2532;52.480;13.354;2022-12-08T09:36:33;5.30;96.80
5027;DHT22;2532;52.480;13.354;2022-12-08T09:39:00;5.30;96.80
5027;DHT22;2532;52.480;13.354;2022-12-08T09:41:31;5.40;96.80
5027;DHT22;2532;52.480;13.354;2022-12-08T09:44:08;5.40;96.80
5027;DHT22;2532;52.480;13.354;2022-12-08T09:46:42;5.40;96.80
5027;DHT22;2532;52.480;13.354;2022-12-08T09:49:14;5.40;96.80
5027;DHT22;2532;52.480;13.354;2022-12-08T09:51:44;5.50;96.80
5027;DHT22;2532;52.480;13.354;2022-12-08T09:54:16;5.50;96.80
5027;DHT22;2532;52.480;13.354;2022-12-08T09:56:44;5.60;96.80
5027;DHT22;2532;52.480;13.354;2022-12-08T09:59:21;5.60;96.70
5027;DHT22;2532;52.480;13.354;2022-12-08T10:01:49;5.60;96.50
5027;DHT22;2532;52.480;13.354;2022-12-08T10:04:21;5.60;96.40
5027;DHT22;2532;52.480;13.354;2022-12-08T10:06:59;5.60;96.40
5027;DHT22;2532;52.480;13.354;2022-12-08T10:09:37;5.60;96.40
5027;DHT22;2532;52.480;13.354;2022-12-08T10:12:14;5.70;96.50
5027;DHT22;2532;52.480;13.354;2022-12-08T10:14:46;5.60;96.40
5027;DHT22;2532;52.480;13.354;2022-12-08T10:17:17;5.70;96.50
5027;DHT22;2532;52.480;13.354;2022-12-08T10:19:47;5.70;96.40
5027;DHT22;2532;52.480;13.354;2022-12-08T10:22:19;5.70;96.40
5027;DHT22;2532;52.480;13.354;2022-12-08T10:24:58;5.70;96.40
5027;DHT22;2532;52.480;13.354;2022-12-08T10:27:26;5.70;96.50
5027;DHT22;2532;52.480;13.354;2022-12-08T10:29:53;5.80;96.50
5027;DHT22;2532;52.480;13.354;2022-12-08T10:32:22;5.80;96.50
5027;DHT22;2532;52.480;13.354;2022-12-08T10:35:02;5.80;96.60
5027;DHT22;2532;52.480;13.354;2022-12-08T10:37:32;5.80;96.60
5027;DHT22;2532;52.480;13.354;2022-12-08T10:40:00;5.80;96.60
5027;DHT22;2532;52.480;13.354;2022-12-08T10:42:34;5.80;96.60
5027;DHT22;2532;52.480;13.354;2022-12-08T10:45:16;5.90;96.70
5027;DHT22;2532;52.480;13.354;2022-12-08T10:47:54;5.90;96.70
5027;DHT22;2532;52.480;13.354;2022-12-08T10:50:30;5.90;96.90
5027;DHT22;2532;52.480;13.354;2022-12-08T10:53:00;5.90;96.50
5027;DHT22;2532;52.480;13.354;2022-12-08T10:55:28;6.00;96.50
5027;DHT22;2532;52.480;13.354;2022-12-08T11:00:46;6.00;96.40
5027;DHT22;2532;52.480;13.354;2022-12-08T11:03:22;6.00;96.30
5027;DHT22;2532;52.480;13.354;2022-12-08T11:05:55;5.90;96.10
5027;DHT22;2532;52.480;13.354;2022-12-08T11:08:23;5.90;96.20
5027;DHT22;2532;52.480;13.354;2022-12-08T11:10:51;5.80;96.10
5027;DHT22;2532;52.480;13.354;2022-12-08T11:13:21;5.80;96.20
5027;DHT22;2532;52.480;13.354;2022-12-08T11:15:49;5.80;96.30
5027;DHT22;2532;52.480;13.354;2022-12-08T11:18:37;5.80;96.40
5027;DHT22;2532;52.480;13.354;2022-12-08T11:21:14;5.70;96.30
5027;DHT22;2532;52.480;13.354;2022-12-08T11:23:46;5.70;96.40
5027;DHT22;2532;52.480;13.354;2022-12-08T11:26:22;5.70;96.40
5027;DHT22;2532;52.480;13.354;2022-12-08T11:28:51;5.70;96.50
5027;DHT22;2532;52.480;13.354;2022-12-08T11:31:27;5.70;96.40
5027;DHT22;2532;52.480;13.354;2022-12-08T11:33:55;5.70;96.50
5027;DHT22;2532;52.480;13.354;2022-12-08T11:36:25;5.70;96.60
5027;DHT22;2532;52.480;13.354;2022-12-08T11:38:55;5.70;96.60
5027;DHT22;2532;52.480;13.354;2022-12-08T11:41:25;5.70;96.60
5027;DHT22;2532;52.480;13.354;2022-12-08T11:43:57;5.80;96.70
5027;DHT22;2532;52.480;13.354;2022-12-08T11:46:32;5.80;96.70
5027;DHT22;2532;52.480;13.354;2022-12-08T11:49:01;5.80;96.70
5027;DHT22;2532;52.480;13.354;2022-12-08T11:51:31;5.80;96.70
5027;DHT22;2532;52.480;13.354;2022-12-08T11:54:10;5.70;96.70
5027;DHT22;2532;52.480;13.354;2022-12-08T11:56:43;5.80;96.90
5027;DHT22;2532;52.480;13.354;2022-12-08T11:59:17;5.70;96.80
5027;DHT22;2532;52.480;13.354;2022-12-08T12:01:46;5.80;97.00
5027;DHT22;2532;52.480;13.354;2022-12-08T12:04:18;5.80;96.90
5027;DHT22;2532;52.480;13.354;2022-12-08T12:10:14;5.80;96.90
5027;DHT22;2532;52.480;13.354;2022-12-08T12:12:54;5.80;96.90
5027;DHT22;2532;52.480;13.354;2022-12-08T12:15:58;5.80;96.90
5027;DHT22;2532;52.480;13.354;2022-12-08T12:18:33;5.80;97.30
5027;DHT22;2532;52.480;13.354;2022-12-08T12:21:06;5.80;96.90
5027;DHT22;2532;52.480;13.354;2022-12-08T12:23:37;5.70;96.70
5027;DHT22;2532;52.480;13.354;2022-12-08T12:26:09;5.70;96.80
5027;DHT22;2532;52.480;13.354;2022-12-08T12:28:44;5.70;96.80
5027;DHT22;2532;52.480;13.354;2022-12-08T12:31:16;5.70;96.90
5027;DHT22;2532;52.480;13.354;2022-12-08T12:33:45;5.60;96.90
5027;DHT22;2532;52.480;13.354;2022-12-08T12:36:13;5.60;96.90
5027;DHT22;2532;52.480;13.354;2022-12-08T12:38:44;5.60;97.00
5027;DHT22;2532;52.480;13.354;2022-12-08T12:41:33;5.70;97.10
5027;DHT22;2532;52.480;13.354;2022-12-08T12:44:20;5.70;97.20
5027;DHT22;2532;52.480;13.354;2022-12-08T12:46:55;5.70;97.20
5027;DHT22;2532;52.480;13.354;2022-12-08T12:49:50;5.80;97.10
5027;DHT22;2532;52.480;13.354;2022-12-08T12:52:50;5.70;97.00
5027;DHT22;2532;52.480;13.354;2022-12-08T12:55:52;5.70;97.10
5027;DHT22;2532;52.480;13.354;2022-12-08T13:01:47;5.70;97.10
5027;DHT22;2532;52.480;13.354;2022-12-08T13:04:16;5.70;97.20
5027;DHT22;2532;52.480;13.354;2022-12-08T13:06:47;5.70;97.10
5027;DHT22;2532;52.480;13.354;2022-12-08T13:09:21;5.70;97.10
5027;DHT22;2532;52.480;13.354;2022-12-08T13:11:51;5.70;97.00
5027;DHT22;2532;52.480;13.354;2022-12-08T13:14:30;5.70;96.90
5027;DHT22;2532;52.480;13.354;2022-12-08T13:16:59;5.70;96.90
5027;DHT22;2532;52.480;13.354;2022-12-08T13:19:30;5.70;96.80
5027;DHT22;2532;52.480;13.354;2022-12-08T13:28:11;5.70;96.80
5027;DHT22;2532;52.480;13.354;2022-12-08T13:30:45;5.70;96.90
5027;DHT22;2532;52.480;13.354;2022-12-08T13:33:26;5.70;96.90
5027;DHT22;2532;52.480;13.354;2022-12-08T13:36:12;5.70;97.00
5027;DHT22;2532;52.480;13.354;2022-12-08T13:38:43;5.70;97.00
5027;DHT22;2532;52.480;13.354;2022-12-08T13:41:16;5.80;97.10
5027;DHT22;2532;52.480;13.354;2022-12-08T13:43:47;5.80;97.10
5027;DHT22;2532;52.480;13.354;2022-12-08T13:46:30;5.80;97.20
5027;DHT22;2532;52.480;13.354;2022-12-08T13:48:59;5.80;97.10
5027;DHT22;2532;52.480;13.354;2022-12-08T13:51:29;5.80;97.10
5027;DHT22;2532;52.480;13.354;2022-12-08T13:54:04;5.80;97.10
5027;DHT22;2532;52.480;13.354;2022-12-08T13:56:42;5.80;97.10
5027;DHT22;2532;52.480;13.354;2022-12-08T13:59:24;5.80;97.10
5027;DHT22;2532;52.480;13.354;2022-12-08T14:02:00;5.80;97.10
5027;DHT22;2532;52.480;13.354;2022-12-08T14:04:29;5.90;97.10
5027;DHT22;2532;52.480;13.354;2022-12-08T14:07:00;5.90;97.10
5027;DHT22;2532;52.480;13.354;2022-12-08T14:09:32;5.90;97.00
5027;DHT22;2532;52.480;13.354;2022-12-08T14:12:02;5.90;96.90
5027;DHT22;2532;52.480;13.354;2022-12-08T14:14:33;5.90;97.00
5027;DHT22;2532;52.480;13.354;2022-12-08T14:17:05;5.80;97.10
5027;DHT22;2532;52.480;13.354;2022-12-08T14:19:33;5.90;97.20
5027;DHT22;2532;52.480;13.354;2022-12-08T14:22:04;5.80;97.10
5027;DHT22;2532;52.480;13.354;2022-12-08T14:24:32;5.70;96.90
5027;DHT22;2532;52.480;13.354;2022-12-08T14:27:01;5.70;97.00
5027;DHT22;2532;52.480;13.354;2022-12-08T14:29:38;5.70;96.90
5027;DHT22;2532;52.480;13.354;2022-12-08T14:32:22;5.70;97.00
5027;DHT22;2532;52.480;13.354;2022-12-08T14:34:52;5.70;97.00
5027;DHT22;2532;52.480;13.354;2022-12-08T14:37:19;5.70;97.10
5027;DHT22;2532;52.480;13.354;2022-12-08T14:39:47;5.70;97.10
5027;DHT22;2532;52.480;13.354;2022-12-08T14:42:21;5.70;97.10
5027;DHT22;2532;52.480;13.354;2022-12-08T14:44:53;5.70;97.10
5027;DHT22;2532;52.480;13.354;2022-12-08T14:47:28;5.80;97.00
5027;DHT22;2532;52.480;13.354;2022-12-08T14:49:55;5.70;96.90
5027;DHT22;2532;52.480;13.354;2022-12-08T14:52:22;5.70;96.90
5027;DHT22;2532;52.480;13.354;2022-12-08T14:54:50;5.70;97.00
5027;DHT22;2532;52.480;13.354;2022-12-08T14:57:18;5.70;97.20
5027;DHT22;2532;52.480;13.354;2022-12-08T14:59:46;5.70;96.80
5027;DHT22;2532;52.480;13.354;2022-12-08T15:02:25;5.70;96.80
5027;DHT22;2532;52.480;13.354;2022-12-08T15:05:00;5.70;96.80
5027;DHT22;2532;52.480;13.354;2022-12-08T15:07:31;5.60;96.80
5027;DHT22;2532;52.480;13.354;2022-12-08T15:10:17;5.60;96.80
5027;DHT22;2532;52.480;13.354;2022-12-08T15:13:00;5.60;96.80
5027;DHT22;2532;52.480;13.354;2022-12-08T15:15:29;5.60;96.80
5027;DHT22;2532;52.480;13.354;2022-12-08T15:18:11;5.60;96.70
5027;DHT22;2532;52.480;13.354;2022-12-08T15:20:40;5.60;96.70
5027;DHT22;2532;52.480;13.354;2022-12-08T15:23:23;5.60;96.60
5027;DHT22;2532;52.480;13.354;2022-12-08T15:25:51;5.60;96.70
5027;DHT22;2532;52.480;13.354;2022-12-08T15:28:20;5.60;96.60
5027;DHT22;2532;52.480;13.354;2022-12-08T15:30:49;5.60;96.50
5027;DHT22;2532;52.480;13.354;2022-12-08T15:33:18;5.60;96.50
5027;DHT22;2532;52.480;13.354;2022-12-08T15:35:47;5.60;96.40
5027;DHT22;2532;52.480;13.354;2022-12-08T15:38:20;5.60;96.40
5027;DHT22;2532;52.480;13.354;2022-12-08T15:40:48;5.50;96.40
5027;DHT22;2532;52.480;13.354;2022-12-08T15:43:15;5.50;96.40
5027;DHT22;2532;52.480;13.354;2022-12-08T15:45:42;5.50;96.50
5027;DHT22;2532;52.480;13.354;2022-12-08T15:48:16;5.50;96.50
5027;DHT22;2532;52.480;13.354;2022-12-08T15:50:44;5.50;96.40
5027;DHT22;2532;52.480;13.354;2022-12-08T15:53:12;5.50;96.40
5027;DHT22;2532;52.480;13.354;2022-12-08T15:55:39;5.50;96.40
5027;DHT22;2532;52.480;13.354;2022-12-08T15:58:20;5.50;96.40
5027;DHT22;2532;52.480;13.354;2022-12-08T16:00:47;5.50;96.40
5027;DHT22;2532;52.480;13.354;2022-12-08T16:03:23;5.50;96.40
5027;DHT22;2532;52.480;13.354;2022-12-08T16:05:50;5.50;96.40
5027;DHT22;2532;52.480;13.354;2022-12-08T16:08:17;5.50;96.30
5027;DHT22;2532;52.480;13.354;2022-12-08T16:10:45;5.50;96.30
5027;DHT22;2532;52.480;13.354;2022-12-08T16:13:14;5.40;96.30
5027;DHT22;2532;52.480;13.354;2022-12-08T16:16:00;5.40;96.30
5027;DHT22;2532;52.480;13.354;2022-12-08T16:18:31;5.40;96.30
5027;DHT22;2532;52.480;13.354;2022-12-08T16:20:59;5.40;96.40
5027;DHT22;2532;52.480;13.354;2022-12-08T16:23:26;5.40;96.40
5027;DHT22;2532;52.480;13.354;2022-12-08T16:25:54;5.40;96.40
5027;DHT22;2532;52.480;13.354;2022-12-08T16:28:21;5.40;96.40
5027;DHT22;2532;52.480;13.354;2022-12-08T16:30:48;5.40;96.40
5027;DHT22;2532;52.480;13.354;2022-12-08T16:33:15;5.40;96.40
5027;DHT22;2532;52.480;13.354;2022-12-08T16:35:43;5.40;96.40
5027;DHT22;2532;52.480;13.354;2022-12-08T16:38:14;5.40;96.30
5027;DHT22;2532;52.480;13.354;2022-12-08T16:40:43;5.40;96.30
5027;DHT22;2532;52.480;13.354;2022-12-08T16:43:27;5.40;96.30
5027;DHT22;2532;52.480;13.354;2022-12-08T16:45:54;5.40;96.30